Buenos Aires, Argentina

11:54 PM ART en Septiembre 15, 2014 (GMT -0300)
Colegiales | Change Station
CLOSE
Current Station
Estación meteorológica personal
Location: Buenos Aires, BUENOS AIRES
Altura: 62 ft
Estaciones meteorológicas cercanas

Alt 62 ft 34.58 °S, 58.45 °W | Updated 9 minutes ago

Clear
Despejado
57.2 ° F
Sensación térmica 57.2 ° F
N
0.0
Viento Variable Viento desde Norte
Gusts 0.0 mph

Hoy
Alta -- | Baja -- ° F
--% Posibilidad de precipitaciones
Ayer
Alta -- | Baja -- ° F
Precip. -- pul
6:53 AM 6:45 PM
Gibosa menguante, 50% visible
Presión 30.09 pul
Visibilidad -9999.0 Millas
Nubes
Punto de rocío 52 ° F
Humedad 83%
Precipitaciones 0.01 pul
Espesor de la nieve No disponible.
UV No disponible.
Polen No disponible.
Calidad del aire No disponible.
Flu Activity No disponible.
METAR SABE 160200Z 18004KT CAVOK 14/06 Q1019

More Conditions Fewer Conditions

Presión 30.09 pul
Visibilidad -9999.0 Millas
Nubes
Punto de rocío 52 ° F
Humedad 83%
Precipitaciones 0.01 pul
Espesor de la nieve No disponible.
UV No disponible.
Polen No disponible.
Calidad del aire No disponible.
Flu Activity No disponible.
METAR SABE 160200Z 18004KT CAVOK 14/06 Q1019

More Conditions Fewer Conditions

10-Day Weather Forecast

Almanac

Astronomía

Sep. 15, 2014 Salida Puesta
Hora real 6:53 AM ART 6:45 PM ART
Crepúsculo civil 6:28 AM ART 7:10 PM ART
Crepúsculo náutico 5:58 AM ART 7:39 PM ART
Crepúsculo astronómico 5:29 AM ART 8:08 PM ART
Luna 12:52 AM ART (9/15) 11:27 AM ART (9/15)
Horas de luz 12h 42m
Horas de luz
11h 52m
Tomorrow will be 2m 9s longer.
Gibosa menguante, 50% of the Moon is Illuminated
Hoy
Gibosa menguante
Sep 24
Nueva
Oct 1
Cuarto creciente
Oct 8
Luna llena
Oct 15
Cuarto menguante

Extremos de hoy

Máximos del país Bajas del país

Community

WunderPhotos

Upload Photos

1,753,676 ¡fotos cargadas!

Nearby

Calidad del aire

Not available.

Grosos de nieve

Not available.

Actividad de terremotos

Ciudad Distance Mag. Tiempo y dato
No hay informes recientes de la actividad sísmica.
Magnitud mínima muestra es 2,5.

Temperaturas de aguas costeras

Lugar Temperatura
Sin partes meteorológicos de las estaciones

Estaciones meteorológicas cercanas